Terminal Aerodrome Forecast
Issued by NWS

Home | Current Version | Previous Version | Text Only | Print | Product List | Glossary On
Versions: 1 2 3 4 5 6 7 8 9 10 11 12
246
FTUS42 KGSP 171135
TAFGMU
TAF
KGMU 171135Z 1712/1812 00000KT P6SM FEW250
     FM171600 21004KT P6SM BKN250
     FM172100 24005KT P6SM VCSH OVC030
     FM180000 VRB03KT P6SM BKN060
     FM180900 25004KT 5SM BR BKN090=

USA.gov is the U.S. government's official web portal to all federal, state and local government web resources and services.